Time,TemperatureF,DewpointF,PressureIn,WindDirection,WindDirectionDegrees,WindSpeedMPH,WindSpeedGustMPH,Humidity,HourlyPrecipIn,Conditions,Clouds,dailyrainin,SoftwareType,DateUTC
2016-08-26 01:24:00,51.0,44.0,-100.00,NNW,336,3.0,6.0,78,-99.99,,,-99.99,,2016-08-26 07:24:00,
2016-08-26 01:37:00,51.0,44.0,-100.00,NNW,336,3.0,6.0,78,-99.99,,,-99.99,,2016-08-26 07:37:00,
2016-08-26 01:45:00,51.0,44.0,-100.00,NNW,336,3.0,6.0,78,-99.99,,,-99.99,,2016-08-26 07:45:00,
2016-08-26 01:55:00,51.0,44.0,-100.00,NNW,336,3.0,6.0,78,-99.99,,,-99.99,,2016-08-26 07:55:00,
2016-08-26 02:23:00,50.0,43.0,-100.00,NNE,15,5.0,8.0,78,-99.99,,,-99.99,,2016-08-26 08:23:00,
2016-08-26 02:34:00,50.0,43.0,-100.00,NNE,15,5.0,8.0,78,-99.99,,,-99.99,,2016-08-26 08:34:00,
2016-08-26 02:43:00,50.0,43.0,-100.00,NNE,15,5.0,8.0,78,-99.99,,,-99.99,,2016-08-26 08:43:00,
2016-08-26 02:53:00,50.0,43.0,-100.00,NNE,15,5.0,8.0,78,-99.99,,,-99.99,,2016-08-26 08:53:00,
2016-08-26 03:23:00,50.0,43.0,-100.00,NE,37,1.0,6.0,78,-99.99,,,-99.99,,2016-08-26 09:23:00,
2016-08-26 03:34:00,50.0,43.0,-100.00,NE,37,1.0,6.0,78,-99.99,,,-99.99,,2016-08-26 09:34:00,
2016-08-26 03:44:00,50.0,43.0,-100.00,NE,37,1.0,6.0,78,-99.99,,,-99.99,,2016-08-26 09:44:00,
2016-08-26 04:23:00,49.0,44.0,-100.00,North,-9999,-999.9,-999.0,84,-99.99,,,-99.99,,2016-08-26 10:23:00,
2016-08-26 04:47:00,49.0,44.0,-100.00,NNW,328,1.0,4.0,84,-99.99,,,-99.99,,2016-08-26 10:47:00,
2016-08-26 04:55:00,49.0,44.0,-100.00,NNW,328,1.0,4.0,84,-99.99,,,-99.99,,2016-08-26 10:55:00,
2016-08-26 05:25:00,50.0,44.0,-100.00,ENE,72,2.0,6.0,79,-99.99,,,-99.99,,2016-08-26 11:25:00,
2016-08-26 05:39:00,50.0,44.0,-100.00,ENE,72,2.0,6.0,79,-99.99,,,-99.99,,2016-08-26 11:39:00,
2016-08-26 06:25:00,49.0,43.0,-100.00,North,0,4.0,6.0,81,-99.99,,,-99.99,,2016-08-26 12:25:00,
2016-08-26 06:35:00,49.0,43.0,-100.00,North,0,4.0,6.0,81,-99.99,,,-99.99,,2016-08-26 12:35:00,
2016-08-26 06:45:00,49.0,43.0,-100.00,North,0,4.0,6.0,81,-99.99,,,-99.99,,2016-08-26 12:45:00,
2016-08-26 07:25:00,49.0,45.0,-100.00,ESE,102,2.0,5.0,85,-99.99,,,-99.99,,2016-08-26 13:25:00,
2016-08-26 07:35:00,49.0,45.0,-100.00,ESE,102,2.0,5.0,85,-99.99,,,-99.99,,2016-08-26 13:35:00,
2016-08-26 07:45:00,49.0,45.0,-100.00,ESE,102,2.0,5.0,85,-99.99,,,-99.99,,2016-08-26 13:45:00,
2016-08-26 07:55:00,49.0,45.0,-100.00,ESE,102,2.0,5.0,85,-99.99,,,-99.99,,2016-08-26 13:55:00,
2016-08-26 08:24:00,50.0,46.0,-100.00,NW,324,3.0,4.0,86,-99.99,,,-99.99,,2016-08-26 14:24:00,
2016-08-26 08:34:00,50.0,46.0,-100.00,NW,324,3.0,4.0,86,-99.99,,,-99.99,,2016-08-26 14:34:00,
2016-08-26 08:46:00,50.0,46.0,-100.00,NW,324,3.0,4.0,86,-99.99,,,-99.99,,2016-08-26 14:46:00,
2016-08-26 09:23:00,56.0,48.0,-100.00,SSE,154,4.0,6.0,75,-99.99,,,-99.99,,2016-08-26 15:23:00,
2016-08-26 09:35:00,56.0,48.0,-100.00,SSE,154,4.0,-999.0,75,-99.99,,,-99.99,,2016-08-26 15:35:00,
2016-08-26 10:34:00,56.0,47.0,-100.00,SSE,165,2.0,-999.0,71,-99.99,,,-99.99,,2016-08-26 16:34:00,
2016-08-26 10:57:00,56.0,47.0,-100.00,SSE,165,2.0,6.0,71,-99.99,,,-99.99,,2016-08-26 16:57:00,
2016-08-26 10:58:00,63.0,47.0,-100.00,WSW,239,3.0,-999.0,56,-99.99,,,-99.99,,2016-08-26 16:58:00,
2016-08-26 11:35:00,63.0,47.0,-100.00,WSW,239,3.0,10.0,56,-99.99,,,-99.99,,2016-08-26 17:35:00,
2016-08-26 11:45:00,63.0,47.0,-100.00,WSW,239,3.0,10.0,56,-99.99,,,-99.99,,2016-08-26 17:45:00,
2016-08-26 12:24:00,65.0,46.0,-100.00,SW,228,4.0,-999.0,51,-99.99,,,-99.99,,2016-08-26 18:24:00,
2016-08-26 12:35:00,65.0,46.0,-100.00,SW,228,4.0,12.0,51,-99.99,,,-99.99,,2016-08-26 18:35:00,
2016-08-26 12:45:00,65.0,46.0,-100.00,SW,228,4.0,12.0,51,-99.99,,,-99.99,,2016-08-26 18:45:00,
2016-08-26 12:55:00,65.0,46.0,-100.00,SW,228,4.0,12.0,51,-99.99,,,-99.99,,2016-08-26 18:55:00,
2016-08-26 13:25:00,68.0,45.0,-100.00,South,169,5.0,13.0,44,-99.99,,,-99.99,,2016-08-26 19:25:00,
2016-08-26 13:37:00,68.0,45.0,-100.00,South,169,5.0,13.0,44,-99.99,,,-99.99,,2016-08-26 19:37:00,
2016-08-26 13:45:00,68.0,45.0,-100.00,South,169,5.0,13.0,44,-99.99,,,-99.99,,2016-08-26 19:45:00,
2016-08-26 13:54:00,68.0,45.0,-100.00,South,169,5.0,13.0,44,-99.99,,,-99.99,,2016-08-26 19:54:00,
2016-08-26 14:23:00,69.0,43.0,-100.00,West,272,7.0,-999.0,39,-99.99,,,-99.99,,2016-08-26 20:23:00,
2016-08-26 14:36:00,69.0,43.0,-100.00,West,272,7.0,-999.0,39,-99.99,,,-99.99,,2016-08-26 20:36:00,
2016-08-26 14:44:00,69.0,43.0,-100.00,West,272,7.0,12.0,39,-99.99,,,-99.99,,2016-08-26 20:44:00,
2016-08-26 15:24:00,69.0,42.0,-100.00,WNW,297,9.0,14.0,37,-99.99,,,-99.99,,2016-08-26 21:24:00,
2016-08-26 15:34:00,69.0,42.0,-100.00,WNW,297,9.0,14.0,37,-99.99,,,-99.99,,2016-08-26 21:34:00,
2016-08-26 16:24:00,72.0,43.0,-100.00,SSW,200,6.0,-999.0,35,-99.99,,,-99.99,,2016-08-26 22:24:00,
2016-08-26 16:35:00,72.0,43.0,-100.00,SSW,200,-999.9,-999.0,35,-99.99,,,-99.99,,2016-08-26 22:35:00,
2016-08-26 16:48:00,72.0,43.0,-100.00,SSW,200,6.0,-999.0,35,-99.99,,,-99.99,,2016-08-26 22:48:00,
2016-08-26 16:55:00,72.0,43.0,-100.00,SSW,200,6.0,14.0,35,-99.99,,,-99.99,,2016-08-26 22:55:00,
2016-08-26 17:25:00,71.0,43.0,-100.00,SSE,147,6.0,-999.0,36,-99.99,,,-99.99,,2016-08-26 23:25:00,
2016-08-26 17:36:00,71.0,43.0,-100.00,SSE,147,6.0,12.0,36,-99.99,,,-99.99,,2016-08-26 23:36:00,
2016-08-26 17:45:00,71.0,43.0,-100.00,SSE,147,6.0,12.0,36,-99.99,,,-99.99,,2016-08-26 23:45:00,
2016-08-26 17:55:00,71.0,43.0,-100.00,SSE,147,6.0,12.0,36,-99.99,,,-99.99,,2016-08-26 23:55:00,